Flight Information

DEPARTURE
LAS VEGAS, NV
Elevation:
2181
Runways:
1L/19R - 8988x150 - CONC-G
1R/19L - 9771x150 - CONC-G
8L/26R - 14515x150 - CONC-G
8R/26L - 10526x150 - CONC-E
Active PE Departure:
19L - 19R - 26R
Current PE ATIS:
G
Altimeter:
29.74
Remarks:
V F R DEPARTURES CONTACT CLEARANCE DELIVERY, ADVISE ON COURSE HEADING, ALTITUDE, AND IF FLIGHT FOLLOWING IS REQUESTED.
ATIS:
132.4 702-736-0950
Clearance Delivery:
118
Ground:
121.9 (West of Rwy 01R-19L) 121.1 (East of Rwy 01R-19L)
Tower:
LAS VEGAS TOWER 119.9
DESTINATION
,
Elevation:
TPA:
1000 (est.)


6605.2 NM75° True-14° Var60° HDG

Flight Plan:
(click to file on line)

1. Type
2. Aircraft Identification
3. Aircraft Type / Special Equipment
4. True Airspeed
kts
5. Departure Airport
(ICAO code)
6. Arriving Airport
(ICAO code)
7. Cruising Altitude
ft
8. Alternate Airport
(ICAO code)
9. Route of Flight
10. Remarks


00:00:00 Departure ATIS: Destination ATIS:

Clearance Limit:
Route:
Altitude: Expect in minutes
Frequency:
Transponder: (7500 Hijack / 7600 Lost Comms / 7700 Emergency)


KLAS 110256Z 26007KT 10SM FEW250 27/M17 A2974 RMK AO2 SLP049 T02721172 55003
Time: 2021-04-11T02:56:00Z
1618110995
Winds: 260 @ 7 kts
Visibility: 10.0 sm
Clouds (AGL): FEW 25000
Temperature: 27.2 C
Dew Point: -17.2 C
Pressure: 29.740158 in Hgbr


Notes:

Data extracted from FAA Digital Chart Supplement. Effective: 0901Z Thursday, Feb 25, 2021 to 0901Z Thursday, APR 22, 2021
Current ATIS data is provided courtisy of PilotEdge.